<?xml version="1.0" encoding="UTF-8" standalone="no" ?>
<gpx xmlns="http://www.topografix.com/GPX/1/1" xmlns:xsi="http://www.w3.org/2001/XMLSchema-instance" xsi:schemaLocation="http://www.topografix.com/GPX/1/1 http://www.topografix.com/GPX/1/1/gpx.xsd" version="1.1" creator="VisuGPX - https://www.visugpx.com">
  <metadata>
    <name>23/11/2014</name>
    <desc><![CDATA[maison - camon]]></desc>
  </metadata>
  <trk>
    <name><![CDATA[Sequence 1]]></name>
    <trkseg>
      <trkpt lat="49.89905" lon="2.32801">
        <ele>38</ele>
        <time>2014-11-23T08:08:39Z</time>
      </trkpt>
      <trkpt lat="49.89899" lon="2.3281">
        <ele>28</ele>
        <time>2014-11-23T08:08:49Z</time>
      </trkpt>
      <trkpt lat="49.89897" lon="2.32818">
        <ele>28</ele>
        <time>2014-11-23T08:08:54Z</time>
      </trkpt>
      <trkpt lat="49.89894" lon="2.32827">
        <ele>28</ele>
        <time>2014-11-23T08:09:03Z</time>
      </trkpt>
      <trkpt lat="49.89885" lon="2.32849">
        <ele>27</ele>
        <time>2014-11-23T08:09:20Z</time>
      </trkpt>
      <trkpt lat="49.89879" lon="2.32859">
        <ele>22</ele>
        <time>2014-11-23T08:09:29Z</time>
      </trkpt>
      <trkpt lat="49.89873" lon="2.32874">
        <ele>22</ele>
        <time>2014-11-23T08:09:40Z</time>
      </trkpt>
      <trkpt lat="49.89868" lon="2.3289">
        <ele>21</ele>
        <time>2014-11-23T08:09:51Z</time>
      </trkpt>
      <trkpt lat="49.89864" lon="2.32915">
        <ele>24</ele>
        <time>2014-11-23T08:10:05Z</time>
      </trkpt>
      <trkpt lat="49.89863" lon="2.32922">
        <ele>23</ele>
        <time>2014-11-23T08:10:09Z</time>
      </trkpt>
      <trkpt lat="49.89862" lon="2.32943">
        <ele>23</ele>
        <time>2014-11-23T08:10:20Z</time>
      </trkpt>
      <trkpt lat="49.89862" lon="2.32958">
        <ele>14</ele>
        <time>2014-11-23T08:10:31Z</time>
      </trkpt>
      <trkpt lat="49.89861" lon="2.32974">
        <ele>17</ele>
        <time>2014-11-23T08:10:42Z</time>
      </trkpt>
      <trkpt lat="49.89859" lon="2.32994">
        <ele>18</ele>
        <time>2014-11-23T08:10:54Z</time>
      </trkpt>
      <trkpt lat="49.89857" lon="2.33021">
        <ele>21</ele>
        <time>2014-11-23T08:11:09Z</time>
      </trkpt>
      <trkpt lat="49.89856" lon="2.33037">
        <ele>24</ele>
        <time>2014-11-23T08:11:17Z</time>
      </trkpt>
      <trkpt lat="49.89853" lon="2.33065">
        <ele>25</ele>
        <time>2014-11-23T08:11:33Z</time>
      </trkpt>
      <trkpt lat="49.89853" lon="2.33071">
        <ele>25</ele>
        <time>2014-11-23T08:11:37Z</time>
      </trkpt>
      <trkpt lat="49.89851" lon="2.33095">
        <ele>24</ele>
        <time>2014-11-23T08:11:51Z</time>
      </trkpt>
      <trkpt lat="49.89849" lon="2.33112">
        <ele>23</ele>
        <time>2014-11-23T08:12:00Z</time>
      </trkpt>
      <trkpt lat="49.89848" lon="2.3313">
        <ele>23</ele>
        <time>2014-11-23T08:12:10Z</time>
      </trkpt>
      <trkpt lat="49.89847" lon="2.33153">
        <ele>28</ele>
        <time>2014-11-23T08:12:26Z</time>
      </trkpt>
      <trkpt lat="49.89845" lon="2.33178">
        <ele>30</ele>
        <time>2014-11-23T08:12:39Z</time>
      </trkpt>
      <trkpt lat="49.89843" lon="2.33185">
        <ele>27</ele>
        <time>2014-11-23T08:12:44Z</time>
      </trkpt>
      <trkpt lat="49.89834" lon="2.33204">
        <ele>22</ele>
        <time>2014-11-23T08:12:59Z</time>
      </trkpt>
      <trkpt lat="49.89826" lon="2.33217">
        <ele>22</ele>
        <time>2014-11-23T08:13:11Z</time>
      </trkpt>
      <trkpt lat="49.89815" lon="2.33232">
        <ele>25</ele>
        <time>2014-11-23T08:13:23Z</time>
      </trkpt>
      <trkpt lat="49.89811" lon="2.33236">
        <ele>27</ele>
        <time>2014-11-23T08:13:27Z</time>
      </trkpt>
      <trkpt lat="49.89799" lon="2.33244">
        <ele>26</ele>
        <time>2014-11-23T08:13:40Z</time>
      </trkpt>
      <trkpt lat="49.89791" lon="2.3325">
        <ele>28</ele>
        <time>2014-11-23T08:13:49Z</time>
      </trkpt>
      <trkpt lat="49.89778" lon="2.33259">
        <ele>28</ele>
        <time>2014-11-23T08:14:03Z</time>
      </trkpt>
      <trkpt lat="49.89764" lon="2.3327">
        <ele>30</ele>
        <time>2014-11-23T08:14:16Z</time>
      </trkpt>
      <trkpt lat="49.89758" lon="2.33278">
        <ele>33</ele>
        <time>2014-11-23T08:14:22Z</time>
      </trkpt>
      <trkpt lat="49.89747" lon="2.33284">
        <ele>32</ele>
        <time>2014-11-23T08:14:33Z</time>
      </trkpt>
      <trkpt lat="49.89729" lon="2.33295">
        <ele>31</ele>
        <time>2014-11-23T08:14:51Z</time>
      </trkpt>
      <trkpt lat="49.89724" lon="2.33299">
        <ele>34</ele>
        <time>2014-11-23T08:14:55Z</time>
      </trkpt>
      <trkpt lat="49.89703" lon="2.33318">
        <ele>40</ele>
        <time>2014-11-23T08:15:14Z</time>
      </trkpt>
      <trkpt lat="49.89696" lon="2.33323">
        <ele>33</ele>
        <time>2014-11-23T08:15:22Z</time>
      </trkpt>
      <trkpt lat="49.8969" lon="2.33327">
        <ele>35</ele>
        <time>2014-11-23T08:15:28Z</time>
      </trkpt>
      <trkpt lat="49.89672" lon="2.33338">
        <ele>29</ele>
        <time>2014-11-23T08:15:46Z</time>
      </trkpt>
      <trkpt lat="49.89667" lon="2.3334">
        <ele>27</ele>
        <time>2014-11-23T08:15:51Z</time>
      </trkpt>
      <trkpt lat="49.89658" lon="2.33342">
        <ele>28</ele>
        <time>2014-11-23T08:16:02Z</time>
      </trkpt>
      <trkpt lat="49.89649" lon="2.33344">
        <ele>29</ele>
        <time>2014-11-23T08:16:12Z</time>
      </trkpt>
      <trkpt lat="49.89641" lon="2.33352">
        <ele>27</ele>
        <time>2014-11-23T08:16:23Z</time>
      </trkpt>
      <trkpt lat="49.89629" lon="2.33369">
        <ele>28</ele>
        <time>2014-11-23T08:16:37Z</time>
      </trkpt>
      <trkpt lat="49.89619" lon="2.33391">
        <ele>24</ele>
        <time>2014-11-23T08:16:55Z</time>
      </trkpt>
      <trkpt lat="49.89618" lon="2.33392">
        <ele>24</ele>
        <time>2014-11-23T08:16:56Z</time>
      </trkpt>
      <trkpt lat="49.89613" lon="2.33405">
        <ele>26</ele>
        <time>2014-11-23T08:17:07Z</time>
      </trkpt>
      <trkpt lat="49.89607" lon="2.33416">
        <ele>22</ele>
        <time>2014-11-23T08:17:18Z</time>
      </trkpt>
      <trkpt lat="49.89597" lon="2.33441">
        <ele>23</ele>
        <time>2014-11-23T08:17:36Z</time>
      </trkpt>
      <trkpt lat="49.89589" lon="2.33452">
        <ele>26</ele>
        <time>2014-11-23T08:17:44Z</time>
      </trkpt>
      <trkpt lat="49.89583" lon="2.33464">
        <ele>23</ele>
        <time>2014-11-23T08:17:52Z</time>
      </trkpt>
      <trkpt lat="49.89577" lon="2.33482">
        <ele>20</ele>
        <time>2014-11-23T08:18:05Z</time>
      </trkpt>
      <trkpt lat="49.89569" lon="2.33501">
        <ele>15</ele>
        <time>2014-11-23T08:18:20Z</time>
      </trkpt>
      <trkpt lat="49.89562" lon="2.33511">
        <ele>16</ele>
        <time>2014-11-23T08:18:29Z</time>
      </trkpt>
      <trkpt lat="49.89555" lon="2.33522">
        <ele>21</ele>
        <time>2014-11-23T08:18:37Z</time>
      </trkpt>
      <trkpt lat="49.89542" lon="2.33546">
        <ele>22</ele>
        <time>2014-11-23T08:18:54Z</time>
      </trkpt>
      <trkpt lat="49.89539" lon="2.33552">
        <ele>22</ele>
        <time>2014-11-23T08:18:58Z</time>
      </trkpt>
      <trkpt lat="49.89531" lon="2.33564">
        <ele>21</ele>
        <time>2014-11-23T08:19:09Z</time>
      </trkpt>
      <trkpt lat="49.89522" lon="2.33576">
        <ele>18</ele>
        <time>2014-11-23T08:19:20Z</time>
      </trkpt>
      <trkpt lat="49.89511" lon="2.33595">
        <ele>20</ele>
        <time>2014-11-23T08:19:38Z</time>
      </trkpt>
      <trkpt lat="49.89507" lon="2.33599">
        <ele>19</ele>
        <time>2014-11-23T08:19:43Z</time>
      </trkpt>
      <trkpt lat="49.895" lon="2.33607">
        <ele>18</ele>
        <time>2014-11-23T08:19:52Z</time>
      </trkpt>
      <trkpt lat="49.89491" lon="2.3362">
        <ele>15</ele>
        <time>2014-11-23T08:20:03Z</time>
      </trkpt>
      <trkpt lat="49.89481" lon="2.33639">
        <ele>16</ele>
        <time>2014-11-23T08:20:19Z</time>
      </trkpt>
      <trkpt lat="49.89476" lon="2.33648">
        <ele>18</ele>
        <time>2014-11-23T08:20:26Z</time>
      </trkpt>
      <trkpt lat="49.89464" lon="2.33665">
        <ele>17</ele>
        <time>2014-11-23T08:20:43Z</time>
      </trkpt>
      <trkpt lat="49.89458" lon="2.33676">
        <ele>18</ele>
        <time>2014-11-23T08:20:52Z</time>
      </trkpt>
      <trkpt lat="49.89453" lon="2.33686">
        <ele>20</ele>
        <time>2014-11-23T08:21:00Z</time>
      </trkpt>
      <trkpt lat="49.89446" lon="2.33697">
        <ele>20</ele>
        <time>2014-11-23T08:21:10Z</time>
      </trkpt>
      <trkpt lat="49.89437" lon="2.33711">
        <ele>18</ele>
        <time>2014-11-23T08:21:22Z</time>
      </trkpt>
      <trkpt lat="49.89427" lon="2.33723">
        <ele>17</ele>
        <time>2014-11-23T08:21:34Z</time>
      </trkpt>
      <trkpt lat="49.89412" lon="2.33741">
        <ele>18</ele>
        <time>2014-11-23T08:21:51Z</time>
      </trkpt>
      <trkpt lat="49.8941" lon="2.33743">
        <ele>19</ele>
        <time>2014-11-23T08:21:53Z</time>
      </trkpt>
      <trkpt lat="49.8939" lon="2.33762">
        <ele>19</ele>
        <time>2014-11-23T08:22:14Z</time>
      </trkpt>
      <trkpt lat="49.89384" lon="2.33766">
        <ele>21</ele>
        <time>2014-11-23T08:22:21Z</time>
      </trkpt>
      <trkpt lat="49.8938" lon="2.33771">
        <ele>20</ele>
        <time>2014-11-23T08:22:26Z</time>
      </trkpt>
      <trkpt lat="49.89369" lon="2.33777">
        <ele>21</ele>
        <time>2014-11-23T08:22:37Z</time>
      </trkpt>
      <trkpt lat="49.8935" lon="2.33793">
        <ele>23</ele>
        <time>2014-11-23T08:22:57Z</time>
      </trkpt>
      <trkpt lat="49.89347" lon="2.33795">
        <ele>23</ele>
        <time>2014-11-23T08:23:00Z</time>
      </trkpt>
      <trkpt lat="49.89335" lon="2.33804">
        <ele>24</ele>
        <time>2014-11-23T08:23:12Z</time>
      </trkpt>
      <trkpt lat="49.89327" lon="2.33811">
        <ele>23</ele>
        <time>2014-11-23T08:23:21Z</time>
      </trkpt>
      <trkpt lat="49.89314" lon="2.33824">
        <ele>23</ele>
        <time>2014-11-23T08:23:36Z</time>
      </trkpt>
      <trkpt lat="49.89303" lon="2.33834">
        <ele>23</ele>
        <time>2014-11-23T08:23:48Z</time>
      </trkpt>
      <trkpt lat="49.89297" lon="2.3384">
        <ele>24</ele>
        <time>2014-11-23T08:23:55Z</time>
      </trkpt>
      <trkpt lat="49.89286" lon="2.3385">
        <ele>24</ele>
        <time>2014-11-23T08:24:07Z</time>
      </trkpt>
      <trkpt lat="49.89272" lon="2.33866">
        <ele>24</ele>
        <time>2014-11-23T08:24:22Z</time>
      </trkpt>
      <trkpt lat="49.89267" lon="2.33872">
        <ele>23</ele>
        <time>2014-11-23T08:24:28Z</time>
      </trkpt>
      <trkpt lat="49.89258" lon="2.33881">
        <ele>21</ele>
        <time>2014-11-23T08:24:38Z</time>
      </trkpt>
      <trkpt lat="49.89248" lon="2.33892">
        <ele>21</ele>
        <time>2014-11-23T08:24:49Z</time>
      </trkpt>
      <trkpt lat="49.89237" lon="2.33906">
        <ele>19</ele>
        <time>2014-11-23T08:25:02Z</time>
      </trkpt>
      <trkpt lat="49.89229" lon="2.33913">
        <ele>19</ele>
        <time>2014-11-23T08:25:11Z</time>
      </trkpt>
      <trkpt lat="49.89221" lon="2.33918">
        <ele>15</ele>
        <time>2014-11-23T08:25:22Z</time>
      </trkpt>
      <trkpt lat="49.89211" lon="2.33933">
        <ele>12</ele>
        <time>2014-11-23T08:25:35Z</time>
      </trkpt>
      <trkpt lat="49.89201" lon="2.33944">
        <ele>12</ele>
        <time>2014-11-23T08:25:45Z</time>
      </trkpt>
      <trkpt lat="49.89182" lon="2.33969">
        <ele>19</ele>
        <time>2014-11-23T08:26:05Z</time>
      </trkpt>
      <trkpt lat="49.89173" lon="2.33982">
        <ele>20</ele>
        <time>2014-11-23T08:26:15Z</time>
      </trkpt>
      <trkpt lat="49.8917" lon="2.33985">
        <ele>21</ele>
        <time>2014-11-23T08:26:18Z</time>
      </trkpt>
      <trkpt lat="49.89159" lon="2.33995">
        <ele>21</ele>
        <time>2014-11-23T08:26:30Z</time>
      </trkpt>
      <trkpt lat="49.89152" lon="2.34005">
        <ele>22</ele>
        <time>2014-11-23T08:26:39Z</time>
      </trkpt>
      <trkpt lat="49.89142" lon="2.34016">
        <ele>23</ele>
        <time>2014-11-23T08:26:51Z</time>
      </trkpt>
      <trkpt lat="49.89132" lon="2.3403">
        <ele>21</ele>
        <time>2014-11-23T08:27:05Z</time>
      </trkpt>
      <trkpt lat="49.89123" lon="2.34039">
        <ele>21</ele>
        <time>2014-11-23T08:27:14Z</time>
      </trkpt>
      <trkpt lat="49.89116" lon="2.34051">
        <ele>22</ele>
        <time>2014-11-23T08:27:23Z</time>
      </trkpt>
      <trkpt lat="49.89107" lon="2.34063">
        <ele>22</ele>
        <time>2014-11-23T08:27:35Z</time>
      </trkpt>
      <trkpt lat="49.89092" lon="2.34079">
        <ele>22</ele>
        <time>2014-11-23T08:27:51Z</time>
      </trkpt>
      <trkpt lat="49.89087" lon="2.34082">
        <ele>22</ele>
        <time>2014-11-23T08:27:56Z</time>
      </trkpt>
      <trkpt lat="49.89079" lon="2.34096">
        <ele>22</ele>
        <time>2014-11-23T08:28:09Z</time>
      </trkpt>
      <trkpt lat="49.89067" lon="2.34097">
        <ele>24</ele>
        <time>2014-11-23T08:28:19Z</time>
      </trkpt>
      <trkpt lat="49.89055" lon="2.34099">
        <ele>26</ele>
        <time>2014-11-23T08:28:29Z</time>
      </trkpt>
      <trkpt lat="49.89043" lon="2.34101">
        <ele>22</ele>
        <time>2014-11-23T08:28:40Z</time>
      </trkpt>
      <trkpt lat="49.89026" lon="2.34112">
        <ele>18</ele>
        <time>2014-11-23T08:28:58Z</time>
      </trkpt>
      <trkpt lat="49.89016" lon="2.34122">
        <ele>21</ele>
        <time>2014-11-23T08:29:09Z</time>
      </trkpt>
      <trkpt lat="49.89008" lon="2.34125">
        <ele>21</ele>
        <time>2014-11-23T08:29:16Z</time>
      </trkpt>
      <trkpt lat="49.88994" lon="2.34139">
        <ele>21</ele>
        <time>2014-11-23T08:29:30Z</time>
      </trkpt>
      <trkpt lat="49.88989" lon="2.34142">
        <ele>22</ele>
        <time>2014-11-23T08:29:35Z</time>
      </trkpt>
      <trkpt lat="49.88977" lon="2.34146">
        <ele>23</ele>
        <time>2014-11-23T08:29:46Z</time>
      </trkpt>
      <trkpt lat="49.88962" lon="2.34151">
        <ele>21</ele>
        <time>2014-11-23T08:29:59Z</time>
      </trkpt>
      <trkpt lat="49.88953" lon="2.34156">
        <ele>22</ele>
        <time>2014-11-23T08:30:08Z</time>
      </trkpt>
      <trkpt lat="49.88944" lon="2.34169">
        <ele>21</ele>
        <time>2014-11-23T08:30:21Z</time>
      </trkpt>
      <trkpt lat="49.88935" lon="2.34184">
        <ele>18</ele>
        <time>2014-11-23T08:30:33Z</time>
      </trkpt>
      <trkpt lat="49.88927" lon="2.34194">
        <ele>18</ele>
        <time>2014-11-23T08:30:41Z</time>
      </trkpt>
      <trkpt lat="49.88914" lon="2.34211">
        <ele>19</ele>
        <time>2014-11-23T08:30:56Z</time>
      </trkpt>
      <trkpt lat="49.88906" lon="2.34223">
        <ele>20</ele>
        <time>2014-11-23T08:31:06Z</time>
      </trkpt>
      <trkpt lat="49.88896" lon="2.34235">
        <ele>25</ele>
        <time>2014-11-23T08:31:18Z</time>
      </trkpt>
      <trkpt lat="49.88881" lon="2.34247">
        <ele>26</ele>
        <time>2014-11-23T08:31:34Z</time>
      </trkpt>
      <trkpt lat="49.88874" lon="2.34251">
        <ele>26</ele>
        <time>2014-11-23T08:31:40Z</time>
      </trkpt>
      <trkpt lat="49.88863" lon="2.34261">
        <ele>22</ele>
        <time>2014-11-23T08:31:51Z</time>
      </trkpt>
      <trkpt lat="49.88854" lon="2.34266">
        <ele>22</ele>
        <time>2014-11-23T08:32:01Z</time>
      </trkpt>
      <trkpt lat="49.8884" lon="2.34273">
        <ele>25</ele>
        <time>2014-11-23T08:32:14Z</time>
      </trkpt>
      <trkpt lat="49.88828" lon="2.3428">
        <ele>20</ele>
        <time>2014-11-23T08:32:25Z</time>
      </trkpt>
      <trkpt lat="49.88818" lon="2.34286">
        <ele>19</ele>
        <time>2014-11-23T08:32:35Z</time>
      </trkpt>
      <trkpt lat="49.88808" lon="2.34298">
        <ele>15</ele>
        <time>2014-11-23T08:32:47Z</time>
      </trkpt>
      <trkpt lat="49.88795" lon="2.34309">
        <ele>16</ele>
        <time>2014-11-23T08:33:00Z</time>
      </trkpt>
      <trkpt lat="49.88783" lon="2.34315">
        <ele>22</ele>
        <time>2014-11-23T08:33:10Z</time>
      </trkpt>
      <trkpt lat="49.88772" lon="2.34322">
        <ele>26</ele>
        <time>2014-11-23T08:33:21Z</time>
      </trkpt>
      <trkpt lat="49.88767" lon="2.34329">
        <ele>26</ele>
        <time>2014-11-23T08:33:28Z</time>
      </trkpt>
      <trkpt lat="49.88773" lon="2.34336">
        <ele>24</ele>
        <time>2014-11-23T08:33:37Z</time>
      </trkpt>
      <trkpt lat="49.88779" lon="2.34341">
        <ele>27</ele>
        <time>2014-11-23T08:33:49Z</time>
      </trkpt>
      <trkpt lat="49.88779" lon="2.34342">
        <ele>26</ele>
        <time>2014-11-23T08:34:07Z</time>
      </trkpt>
      <trkpt lat="49.88778" lon="2.34349">
        <ele>27</ele>
        <time>2014-11-23T08:34:17Z</time>
      </trkpt>
    </trkseg>
  </trk>
</gpx>